createdAt,value
2023-06-19T03:01:44.028Z,98370.69
2023-06-19T03:02:50.000Z,98375.91
2023-06-19T03:03:53.419Z,98375.06
2023-06-19T03:04:55.246Z,98375.91
2023-06-19T03:06:00.925Z,98373.28
2023-06-19T03:07:04.047Z,98383.75
2023-06-19T03:08:08.075Z,98388.97
2023-06-19T03:09:13.430Z,98379.38
2023-06-19T03:10:16.245Z,98382.81
2023-06-19T03:11:18.039Z,98381.91
2023-06-19T03:12:20.772Z,98386.22
2023-06-19T03:13:22.590Z,98390.59
2023-06-19T03:14:25.378Z,98390.66
2023-06-19T03:15:27.266Z,98395.06
2023-06-19T03:16:30.530Z,98393.28
2023-06-19T03:17:33.775Z,98391.47
2023-06-19T03:18:36.630Z,98395.88
2023-06-19T03:19:38.464Z,98389.72
2023-06-19T03:20:41.224Z,98390.66
2023-06-19T03:21:43.268Z,98398.44
2023-06-19T03:22:46.595Z,98393.91
2023-06-19T03:23:51.286Z,98394.72
2023-06-19T03:24:56.057Z,98395.53
2023-06-19T03:25:58.883Z,98393.66
2023-06-19T03:27:01.948Z,98399.72
2023-06-19T03:28:04.313Z,98402.34
2023-06-19T03:29:07.213Z,98394.53
2023-06-19T03:30:23.989Z,98401.56
2023-06-19T03:31:28.389Z,98400.63
2023-06-19T03:32:32.386Z,98397.22
2023-06-19T03:33:36.965Z,98401.50
2023-06-19T03:34:38.800Z,98404.06
2023-06-19T03:35:44.965Z,98397.09
2023-06-19T03:36:56.714Z,98391.06
2023-06-19T03:37:58.456Z,98401.50
2023-06-19T03:39:01.331Z,98398.03
2023-06-19T03:40:06.850Z,98403.25
2023-06-19T03:41:14.015Z,98396.28
2023-06-19T03:42:15.924Z,98418.94
2023-06-19T03:43:21.278Z,98410.03
2023-06-19T03:44:23.178Z,98406.44
2023-06-19T03:45:25.931Z,98409.84
2023-06-19T03:46:27.861Z,98399.38
2023-06-19T03:47:30.615Z,98407.97
2023-06-19T03:48:32.547Z,98403.69
2023-06-19T03:49:36.700Z,98411.66
2023-06-19T03:50:38.542Z,98401.22
2023-06-19T03:51:43.866Z,98408.19
2023-06-19T03:52:45.699Z,98410.63
2023-06-19T03:53:48.455Z,98414.97
2023-06-19T03:54:53.159Z,98407.16
2023-06-19T03:55:56.761Z,98413.13
2023-06-19T03:56:58.725Z,98416.59
2023-06-19T03:58:01.491Z,98418.28
2023-06-19T03:59:03.477Z,98411.25
2023-06-19T04:00:08.831Z,98420.03
2023-06-19T04:01:15.197Z,98412.13
2023-06-19T04:02:17.026Z,98420.84
2023-06-19T04:03:19.902Z,98423.41
2023-06-19T04:04:21.794Z,98426.00
2023-06-19T04:05:27.219Z,98425.13
2023-06-19T04:06:29.102Z,98439.75
2023-06-19T04:07:32.758Z,98437.25
2023-06-19T04:08:34.925Z,98435.44
2023-06-19T04:09:37.672Z,98441.53
2023-06-19T04:10:39.435Z,98433.59
2023-06-19T04:11:42.122Z,98436.19
2023-06-19T04:12:46.228Z,98429.28
2023-06-19T04:13:48.927Z,98438.91
2023-06-19T04:14:50.737Z,98447.75
2023-06-19T04:15:53.453Z,98444.28
2023-06-19T04:16:55.247Z,98449.50
2023-06-19T04:17:58.034Z,98449.38
2023-06-19T04:19:00.030Z,98457.00
2023-06-19T04:20:04.419Z,98443.97
2023-06-19T04:21:08.322Z,98457.94
2023-06-19T04:22:11.393Z,98449.97
2023-06-19T04:23:13.933Z,98450.03
2023-06-19T04:24:16.790Z,98449.25
2023-06-19T04:25:19.269Z,98440.59
2023-06-19T04:26:22.740Z,98437.91
2023-06-19T04:27:24.482Z,98436.97
2023-06-19T04:28:29.996Z,98447.31
2023-06-19T04:29:32.879Z,98438.66
2023-06-19T04:30:35.602Z,98439.53
2023-06-19T04:31:42.840Z,98447.28
2023-06-19T04:32:45.875Z,98445.56
2023-06-19T04:33:47.859Z,98444.69
2023-06-19T04:34:50.733Z,98440.34
2023-06-19T04:35:52.505Z,98433.44
2023-06-19T04:36:59.318Z,98433.53
2023-06-19T04:38:02.291Z,98438.00
2023-06-19T04:39:05.015Z,98440.53
2023-06-19T04:40:09.056Z,98438.81
2023-06-19T04:41:11.759Z,98429.97
2023-06-19T04:42:14.651Z,98436.97
2023-06-19T04:43:17.292Z,98433.44
2023-06-19T04:44:19.042Z,98442.09
2023-06-19T04:45:21.928Z,98426.44
2023-06-19T04:46:23.766Z,98440.28
2023-06-19T04:47:33.275Z,98441.22
2023-06-19T04:48:40.721Z,98436.00
2023-06-19T04:49:42.516Z,98428.13
2023-06-19T04:50:45.219Z,98438.47
2023-06-19T04:51:47.038Z,98429.81
2023-06-19T04:52:52.424Z,98441.16
2023-06-19T04:53:54.744Z,98429.91
2023-06-19T04:54:57.472Z,98422.06
2023-06-19T04:56:00.835Z,98428.22
2023-06-19T04:57:05.665Z,98429.16
2023-06-19T04:58:07.534Z,98425.63
2023-06-19T04:59:10.178Z,98427.38
2023-06-19T07:08:17.893Z,98495.84
2023-06-19T07:09:22.521Z,98508.88
2023-06-19T07:10:26.279Z,98507.19
2023-06-19T07:11:28.608Z,98507.31
2023-06-19T07:12:31.332Z,98516.09
2023-06-19T07:13:33.149Z,98516.13
2023-06-19T07:14:35.823Z,98520.69
2023-06-19T07:15:37.644Z,98516.44
2023-06-19T07:16:40.398Z,98526.16
2023-06-19T07:17:42.338Z,98529.00
2023-06-19T07:18:45.109Z,98525.66
2023-06-19T07:19:47.795Z,98537.13
2023-06-19T07:20:49.608Z,98523.38
2023-06-19T07:21:52.858Z,98519.13
2023-06-19T07:22:55.603Z,98515.66
2023-06-19T07:23:59.245Z,98513.94
2023-06-19T07:25:02.369Z,98516.63
2023-06-19T07:26:05.062Z,98521.03
2023-06-19T07:27:08.083Z,98509.84
2023-06-19T07:28:10.052Z,98527.41
2023-06-19T07:29:12.759Z,98527.38
2023-06-19T07:30:16.815Z,98528.34
2023-06-19T07:31:19.796Z,98534.53
2023-06-19T07:32:22.676Z,98528.50
2023-06-19T07:33:24.456Z,98536.44
2023-06-19T07:34:27.235Z,98535.66
2023-06-19T07:35:29.913Z,98542.75
2023-06-19T07:36:31.720Z,98539.34
2023-06-19T07:37:35.958Z,98540.25
2023-06-19T07:38:38.788Z,98541.13
2023-06-19T07:39:41.509Z,98543.75
2023-06-19T07:40:45.796Z,98539.38
2023-06-19T07:41:47.692Z,98542.03
2023-06-19T07:42:50.634Z,98541.22
2023-06-19T07:43:52.397Z,98543.03
2023-06-19T07:44:55.030Z,98541.59
2023-06-19T07:45:56.848Z,98543.41
2023-06-19T07:46:59.606Z,98553.09
2023-06-19T07:48:01.486Z,98546.94
2023-06-19T07:49:04.313Z,98553.88
2023-06-19T07:50:06.834Z,98546.81
2023-06-19T07:51:09.544Z,98551.94
2023-06-19T07:52:11.376Z,98548.38
2023-06-19T07:53:14.015Z,98551.75
2023-06-19T07:54:15.827Z,98541.13
2023-06-19T07:55:18.585Z,98549.88
2023-06-19T07:56:21.620Z,98546.38
2023-06-19T07:57:25.790Z,98540.41
2023-06-19T07:58:27.534Z,98536.97
2023-06-19T07:59:30.185Z,98541.38
2023-06-19T08:00:32.827Z,98552.81
2023-06-19T08:01:34.615Z,98551.06
2023-06-19T08:02:37.417Z,98551.94
2023-06-19T08:03:39.363Z,98553.91
2023-06-19T08:04:42.369Z,98557.47
2023-06-19T08:05:45.104Z,98548.84
2023-06-19T08:06:46.873Z,98552.41
2023-06-19T08:07:49.647Z,98566.47
2023-06-19T08:08:52.728Z,98567.25
2023-06-19T08:10:07.844Z,98564.56
2023-06-19T08:11:15.887Z,98567.97
2023-06-19T08:12:19.008Z,98569.72
2023-06-19T08:13:21.719Z,98561.81
2023-06-19T08:14:23.636Z,98563.56
2023-06-19T08:15:26.472Z,98557.44
2023-06-19T08:16:29.197Z,98553.97
2023-06-19T08:17:31.029Z,98547.19
2023-06-19T08:18:33.807Z,98553.38
2023-06-19T08:19:35.610Z,98554.44
2023-06-19T08:20:38.522Z,98560.63
2023-06-19T08:21:41.287Z,98555.44
2023-06-19T08:22:43.940Z,98552.88
2023-06-19T08:23:45.706Z,98549.53
2023-06-19T08:24:48.441Z,98558.34
2023-06-19T08:25:52.029Z,98552.19
2023-06-19T08:26:55.232Z,98561.88
2023-06-19T08:27:58.211Z,98561.94
2023-06-19T08:29:01.465Z,98560.16
2023-06-19T08:30:04.162Z,98553.16
2023-06-19T08:31:06.958Z,98563.72
2023-06-19T08:32:10.367Z,98551.50
2023-06-19T08:33:13.864Z,98549.78
2023-06-19T08:34:15.707Z,98563.00
2023-06-19T08:35:18.666Z,98552.41
2023-06-19T08:36:20.417Z,98560.38
2023-06-19T08:37:23.222Z,98555.94
2023-06-19T08:38:25.971Z,98553.31
2023-06-19T08:39:28.128Z,98552.53
2023-06-19T08:40:31.172Z,98550.88
2023-06-19T08:41:33.020Z,98552.75
2023-06-19T08:42:35.763Z,98547.50
2023-06-19T08:43:42.132Z,98551.00
2023-06-19T08:44:44.901Z,98557.13
2023-06-19T08:45:59.069Z,98556.31
2023-06-19T08:47:01.857Z,98545.78
2023-06-19T08:48:05.845Z,98543.19
2023-06-19T08:49:15.487Z,98546.84
2023-06-19T08:50:17.676Z,98544.34
2023-06-19T08:51:20.354Z,98555.78
2023-06-19T08:52:22.126Z,98545.41
2023-06-19T08:53:24.947Z,98543.78
2023-06-19T08:54:26.739Z,98559.50
2023-06-19T08:55:29.560Z,98567.41
2023-06-19T08:56:35.061Z,98577.09
2023-06-19T08:57:39.945Z,98567.56
2023-06-19T08:58:43.017Z,98564.97
2023-06-19T08:59:50.750Z,98566.78
2023-06-19T09:00:53.433Z,98578.13
2023-06-19T09:01:56.086Z,98576.25
2023-06-19T09:03:13.934Z,98575.47
2023-06-19T09:04:16.736Z,98566.84
2023-06-19T09:05:20.786Z,98566.09
2023-06-19T09:06:22.668Z,98560.03
2023-06-19T09:07:25.484Z,98560.09
2023-06-19T09:08:27.229Z,98565.38
2023-06-19T09:09:33.951Z,98562.88
2023-06-19T09:10:35.899Z,98562.13
2023-06-19T09:11:44.267Z,98556.13
2023-06-19T09:12:58.169Z,98565.03
2023-06-19T09:14:02.147Z,98565.97
2023-06-19T09:15:12.785Z,98572.19
2023-06-19T09:16:15.496Z,98558.13
2023-06-19T09:17:20.198Z,98554.59
2023-06-19T09:18:25.229Z,98558.13
2023-06-19T09:19:27.844Z,98564.34
2023-06-19T09:20:30.132Z,98554.72
2023-06-19T09:21:32.849Z,98556.50
2023-06-19T09:22:34.629Z,98566.16
2023-06-19T09:23:37.385Z,98561.75
2023-06-19T09:24:42.548Z,98559.13
2023-06-19T09:25:48.043Z,98562.66
2023-06-19T09:26:52.156Z,98573.19
2023-06-19T09:27:55.237Z,98569.63
2023-06-19T09:28:57.199Z,98568.69
2023-06-19T09:30:02.641Z,98563.41
2023-06-19T09:31:06.204Z,98562.44
2023-06-19T09:32:17.915Z,98569.50
2023-06-19T09:33:22.026Z,98559.81
2023-06-19T09:34:24.649Z,98563.31
2023-06-19T09:35:27.467Z,98561.59
2023-06-19T09:36:34.475Z,98562.44
2023-06-19T09:37:40.213Z,98569.50
2023-06-19T09:38:42.986Z,98567.81
2023-06-19T09:39:49.588Z,98562.53
2023-06-19T09:40:54.056Z,98566.91
2023-06-19T09:42:00.253Z,98566.97
2023-06-19T09:43:05.198Z,98567.06
2023-06-19T09:44:13.486Z,98564.44
2023-06-19T09:45:21.782Z,98563.59
2023-06-19T09:46:32.117Z,98568.91
2023-06-19T09:47:37.950Z,98564.44
2023-06-19T09:48:44.044Z,98568.81
2023-06-19T09:49:50.744Z,98559.19
2023-06-19T09:50:56.435Z,98556.53
2023-06-19T09:51:59.330Z,98562.78
2023-06-19T09:53:02.241Z,98567.19
2023-06-19T09:54:07.728Z,98571.59
2023-06-19T09:55:13.970Z,98572.47
2023-06-19T09:56:23.470Z,98561.00
2023-06-19T09:57:25.679Z,98569.66
2023-06-19T09:58:29.497Z,98564.34
2023-06-19T09:59:32.085Z,98557.34
2023-06-19T10:00:38.158Z,98561.75
2023-06-19T10:01:41.422Z,98566.16
2023-06-19T10:02:46.000Z,98567.94
2023-06-19T10:03:48.865Z,98567.94
2023-06-19T10:04:53.232Z,98573.19
2023-06-19T10:06:00.410Z,98569.69
2023-06-19T10:07:02.218Z,98571.50
2023-06-19T10:08:05.989Z,98568.84
2023-06-19T10:09:11.142Z,98566.28
2023-06-19T10:10:23.736Z,98565.44
2023-06-19T10:11:28.447Z,98569.81
2023-06-19T10:12:37.774Z,98564.56
2023-06-19T10:13:42.965Z,98567.22
2023-06-19T10:14:48.580Z,98572.50
2023-06-19T10:15:52.726Z,98568.06
2023-06-19T10:16:54.596Z,98567.09
2023-06-19T10:18:03.932Z,98562.59
2023-06-19T10:19:14.692Z,98564.25
2023-06-19T10:20:23.020Z,98565.19
2023-06-19T10:21:25.942Z,98559.88
2023-06-19T10:22:31.699Z,98567.88
2023-06-19T10:23:38.181Z,98564.41
2023-06-19T10:24:52.190Z,98557.41
2023-06-19T10:25:58.781Z,98563.50
2023-06-19T10:27:02.689Z,98562.56
2023-06-19T10:28:08.185Z,98567.81
2023-06-19T10:29:17.643Z,98566.09
2023-06-19T10:30:20.814Z,98569.56
2023-06-19T10:31:25.317Z,98566.13
2023-06-19T10:32:27.056Z,98559.13
2023-06-19T10:33:31.743Z,98569.69
2023-06-19T10:34:35.070Z,98564.34
2023-06-19T10:35:41.793Z,98560.75
2023-06-19T10:36:43.544Z,98564.09
2023-06-19T10:37:46.564Z,98556.13
2023-06-19T10:38:49.449Z,98561.31
2023-06-19T10:39:51.153Z,98563.97
2023-06-19T10:40:54.082Z,98562.38
2023-06-19T10:41:55.895Z,98557.16
2023-06-19T10:42:58.564Z,98559.03
2023-06-19T10:44:01.693Z,98552.09
2023-06-19T10:45:07.808Z,98549.59
2023-06-19T10:46:10.586Z,98549.59
2023-06-19T10:47:17.247Z,98559.31
2023-06-19T10:48:22.555Z,98555.84
2023-06-19T10:49:24.649Z,98557.63
2023-06-19T10:50:27.562Z,98543.56
2023-06-19T10:51:29.706Z,98545.34
2023-06-19T10:52:33.076Z,98544.47
2023-06-19T10:53:34.938Z,98550.69
2023-06-19T10:54:37.735Z,98558.63
2023-06-19T10:55:40.465Z,98545.38
2023-06-19T10:56:44.416Z,98550.59
2023-06-19T10:57:51.836Z,98547.03
2023-06-19T10:58:59.832Z,98546.06
2023-06-19T11:00:01.628Z,98547.84
2023-06-19T11:01:04.720Z,98541.69
2023-06-19T11:02:07.542Z,98545.22
2023-06-19T11:03:11.836Z,98538.22
2023-06-19T11:04:15.303Z,98530.31
2023-06-19T11:05:18.152Z,98535.63
2023-06-19T11:06:20.889Z,98531.25
2023-06-19T11:07:24.706Z,98533.03
2023-06-19T11:08:28.250Z,98530.47
2023-06-19T11:09:32.018Z,98534.00
2023-06-19T11:10:34.674Z,98530.47
2023-06-19T11:11:38.498Z,98524.34
2023-06-19T11:12:41.201Z,98516.44
2023-06-19T11:13:43.941Z,98517.31
2023-06-19T11:14:46.713Z,98525.22
2023-06-19T11:15:50.889Z,98527.88
2023-06-19T11:16:52.831Z,98515.53
2023-06-19T11:17:55.616Z,98519.94
2023-06-19T11:18:58.907Z,98514.69
2023-06-19T11:20:01.657Z,98520.84
2023-06-19T11:21:03.649Z,98514.66
2023-06-19T11:22:09.039Z,98517.34
2023-06-19T11:23:11.757Z,98515.56
2023-06-19T11:24:15.388Z,98512.03
2023-06-19T11:25:18.186Z,98506.75
2023-06-19T11:26:20.050Z,98512.91
2023-06-19T11:27:28.484Z,98508.47
2023-06-19T11:28:31.659Z,98512.00
2023-06-19T11:29:37.731Z,98510.22
2023-06-19T11:30:39.478Z,98515.50
2023-06-19T11:31:42.175Z,98511.97
2023-06-19T11:32:49.153Z,98511.91
2023-06-19T11:33:59.008Z,98520.72
2023-06-19T11:35:08.875Z,98522.50
2023-06-19T11:36:11.784Z,98521.66
2023-06-19T11:37:14.164Z,98520.75
2023-06-19T11:38:20.886Z,98515.44
2023-06-19T11:39:23.445Z,98510.19
2023-06-19T11:40:26.733Z,98519.88
2023-06-19T11:41:29.844Z,98520.78
2023-06-19T11:42:34.120Z,98522.56
2023-06-19T11:43:37.343Z,98520.81
2023-06-19T11:44:54.030Z,98519.06
2023-06-19T11:46:03.901Z,98519.97
2023-06-19T11:47:08.115Z,98525.25
2023-06-19T11:48:10.004Z,98515.56
2023-06-19T11:49:18.059Z,98518.19
2023-06-19T11:50:23.953Z,98528.75
2023-06-19T11:51:28.121Z,98521.69
2023-06-19T11:52:30.169Z,98518.19
2023-06-19T11:53:33.646Z,98512.88
2023-06-19T11:54:36.327Z,98519.91
2023-06-19T11:55:39.633Z,98512.91
2023-06-19T11:56:43.062Z,98512.88
2023-06-19T11:57:45.792Z,98512.88
2023-06-19T11:58:47.645Z,98512.91
2023-06-19T11:59:50.350Z,98512.91
2023-06-19T12:00:54.436Z,98515.53
2023-06-19T12:01:59.102Z,98509.38
2023-06-19T12:03:01.113Z,98509.38
2023-06-19T12:04:05.269Z,98506.72
2023-06-19T12:05:09.633Z,98505.88
2023-06-19T12:06:12.713Z,98504.97
2023-06-19T12:07:16.631Z,98505.00
2023-06-19T12:08:18.512Z,98510.28
2023-06-19T12:09:21.188Z,98514.69
2023-06-19T12:10:23.434Z,98512.91
2023-06-19T12:11:26.805Z,98515.56
2023-06-19T12:12:29.521Z,98518.19
2023-06-19T12:13:31.226Z,98510.25
2023-06-19T12:14:33.890Z,98512.91
2023-06-19T12:15:38.026Z,98519.03
2023-06-19T12:16:40.956Z,98514.59
2023-06-19T12:17:43.932Z,98504.91
2023-06-19T12:18:46.683Z,98508.41
2023-06-19T12:19:49.777Z,98511.13
2023-06-19T12:20:53.759Z,98504.13
2023-06-19T12:21:56.502Z,98508.53
2023-06-19T12:22:59.309Z,98502.34
2023-06-19T12:24:01.140Z,98505.88
2023-06-19T12:25:03.931Z,98504.13
2023-06-19T12:26:08.573Z,98501.47
2023-06-19T12:27:11.254Z,98501.47
2023-06-19T12:28:17.701Z,98503.22
2023-06-19T12:29:21.991Z,98501.47
2023-06-19T12:30:26.260Z,98501.47
2023-06-19T12:31:28.355Z,98504.09
2023-06-19T12:32:31.687Z,98502.31
2023-06-19T12:33:34.031Z,98497.88
2023-06-19T12:34:38.726Z,98497.88
2023-06-19T12:35:42.863Z,98504.00
2023-06-19T12:36:46.031Z,98499.56
2023-06-19T12:37:48.842Z,98502.25
2023-06-19T12:38:50.635Z,98501.34
2023-06-19T12:39:53.434Z,98492.47
2023-06-19T12:40:55.391Z,98492.41
2023-06-19T12:41:58.089Z,98491.53
2023-06-19T12:43:00.086Z,98490.66
2023-06-19T12:44:02.733Z,98495.88
2023-06-19T12:45:05.915Z,98490.63
2023-06-19T12:46:07.933Z,98488.84
2023-06-19T12:47:10.750Z,98486.22
2023-06-19T12:48:12.683Z,98485.41
2023-06-19T12:49:15.347Z,98484.56
2023-06-19T12:50:17.164Z,98496.06
2023-06-19T12:51:20.121Z,98491.66
2023-06-19T12:52:23.273Z,98494.31
2023-06-19T12:53:30.006Z,98486.38
2023-06-19T12:54:32.673Z,98491.72
2023-06-19T12:55:40.873Z,98490.84
2023-06-19T12:56:54.146Z,98490.88
2023-06-19T12:57:56.838Z,98496.16
2023-06-19T12:58:58.632Z,98492.66
2023-06-19T13:00:01.380Z,98500.59
2023-06-19T13:01:03.135Z,98494.41
2023-06-19T13:02:06.275Z,98487.34
2023-06-19T13:03:08.996Z,98486.47
2023-06-19T13:04:12.901Z,98489.03
2023-06-19T13:05:15.774Z,98491.69
2023-06-19T13:06:17.777Z,98485.50
2023-06-19T13:07:20.595Z,98482.88
2023-06-19T13:08:23.759Z,98481.06
2023-06-19T13:09:26.484Z,98483.75
2023-06-19T13:10:28.356Z,98483.72
2023-06-19T13:11:31.064Z,98474.94
2023-06-19T13:12:33.953Z,98481.09
2023-06-19T13:13:36.637Z,98477.56
2023-06-19T13:14:38.983Z,98483.75
2023-06-19T13:15:41.901Z,98486.41
2023-06-19T13:16:46.106Z,98483.75
2023-06-19T13:17:49.609Z,98486.38
2023-06-19T13:18:51.358Z,98490.78
2023-06-19T13:19:53.982Z,98485.53
2023-06-19T13:20:56.548Z,98479.41
2023-06-19T13:21:59.254Z,98481.16
2023-06-19T13:23:00.954Z,98478.56
2023-06-19T13:24:05.420Z,98476.81
2023-06-19T13:26:10.439Z,98485.63
2023-06-19T13:27:13.163Z,98482.06
2023-06-19T13:28:15.217Z,98478.50
2023-06-19T13:29:17.985Z,98476.75
2023-06-19T13:30:19.832Z,98481.16
2023-06-19T13:31:22.554Z,98482.91
2023-06-19T13:32:24.336Z,98473.16
2023-06-19T13:33:27.565Z,98475.78
2023-06-19T13:34:29.395Z,98476.72
2023-06-19T13:35:32.429Z,98473.19
2023-06-19T13:36:34.230Z,98464.34
2023-06-19T13:37:39.878Z,98462.59
2023-06-19T13:38:44.929Z,98472.25
2023-06-19T13:39:49.939Z,98466.03
2023-06-19T13:40:51.741Z,98463.38
2023-06-19T13:41:54.740Z,98459.84
2023-06-19T13:42:58.255Z,98457.22
2023-06-19T13:44:01.055Z,98459.88
2023-06-19T13:45:03.406Z,98459.84
2023-06-19T13:46:06.952Z,98450.13
2023-06-19T13:47:09.061Z,98455.47
2023-06-19T13:48:11.827Z,98455.53
2023-06-19T13:49:15.340Z,98455.47
2023-06-19T13:50:19.301Z,98445.78
2023-06-19T13:51:23.445Z,98457.19
2023-06-19T13:52:26.332Z,98453.63
2023-06-19T13:53:30.848Z,98447.44
2023-06-19T13:54:32.701Z,98446.56
2023-06-19T13:55:36.689Z,98443.09
2023-06-19T13:56:39.275Z,98446.66
2023-06-19T13:57:42.400Z,98444.97
2023-06-19T13:58:44.327Z,98448.47
2023-06-19T13:59:48.312Z,98449.34
2023-06-19T14:00:50.207Z,98444.03
2023-06-19T14:01:52.961Z,98450.19
2023-06-19T14:02:55.475Z,98450.13
2023-06-19T14:03:58.913Z,98446.59
2023-06-19T14:05:01.133Z,98446.66
2023-06-19T14:06:03.800Z,98444.84
2023-06-19T14:07:06.794Z,98443.94
2023-06-19T14:08:10.186Z,98436.00
2023-06-19T14:09:13.326Z,98440.47
2023-06-19T14:10:15.068Z,98440.47
2023-06-19T14:11:19.972Z,98446.59
2023-06-19T14:12:22.709Z,98439.53
2023-06-19T14:13:27.315Z,98434.25
2023-06-19T14:14:29.084Z,98436.88
2023-06-19T14:15:31.822Z,98428.94
2023-06-19T14:16:33.559Z,98439.50
2023-06-19T14:17:36.519Z,98438.59
2023-06-19T14:18:38.863Z,98432.44
2023-06-19T14:19:41.563Z,98434.22
2023-06-19T14:20:43.359Z,98438.63
2023-06-19T14:21:46.005Z,98442.16
2023-06-19T14:22:47.711Z,98441.22
2023-06-19T14:23:50.399Z,98439.47
2023-06-19T14:24:54.295Z,98441.22
2023-06-19T14:25:57.077Z,98436.88
2023-06-19T14:27:01.122Z,98435.22
2023-06-19T14:28:03.390Z,98436.13
2023-06-19T14:29:06.119Z,98441.44
2023-06-19T14:30:09.198Z,98437.88
2023-06-19T14:31:12.244Z,98439.63
2023-06-19T14:32:14.441Z,98433.44
2023-06-19T14:33:17.135Z,98439.63
2023-06-19T14:34:19.962Z,98442.22
2023-06-19T14:35:22.701Z,98435.19
2023-06-19T14:36:25.466Z,98443.09
2023-06-19T14:37:27.584Z,98436.97
2023-06-19T14:38:34.318Z,98441.44
2023-06-19T14:39:36.143Z,98443.22
2023-06-19T14:40:38.797Z,98442.38
2023-06-19T14:41:40.832Z,98448.56
2023-06-19T14:42:44.734Z,98446.81
2023-06-19T14:43:46.532Z,98450.31
2023-06-19T14:44:49.249Z,98446.81
2023-06-19T14:45:51.323Z,98441.53
2023-06-19T14:46:54.110Z,98445.06
2023-06-19T14:47:55.907Z,98445.94
2023-06-19T14:48:59.809Z,98441.59
2023-06-19T14:50:02.646Z,98441.59
2023-06-19T14:51:05.613Z,98443.38
2023-06-19T14:52:08.901Z,98432.75
2023-06-19T14:53:10.708Z,98433.69
2023-06-19T14:54:14.413Z,98435.44
2023-06-19T14:55:16.279Z,98432.78
2023-06-19T14:56:18.973Z,98430.16
2023-06-19T14:57:20.783Z,98436.28
2023-06-19T14:58:28.077Z,98428.38
2023-06-19T14:59:31.285Z,98432.78
2023-06-19T15:00:34.003Z,98428.38
2023-06-19T15:01:36.847Z,98429.28
2023-06-19T15:02:41.074Z,98429.25
2023-06-19T15:03:44.335Z,98433.66
2023-06-19T15:05:01.045Z,98436.31
2023-06-19T15:06:08.196Z,98433.69
2023-06-19T15:07:10.204Z,98431.91
2023-06-19T15:08:12.912Z,98433.69
2023-06-19T15:09:14.962Z,98438.09
2023-06-19T15:10:17.689Z,98445.16
2023-06-19T15:11:19.554Z,98446.00
2023-06-19T15:12:22.230Z,98448.66
2023-06-19T15:13:26.195Z,98440.75
2023-06-19T15:14:28.103Z,98450.41
2023-06-19T15:15:30.814Z,98445.13
2023-06-19T15:16:34.716Z,98445.13
2023-06-19T15:17:38.914Z,98442.47
2023-06-19T15:18:41.382Z,98441.59
2023-06-19T15:19:51.279Z,98442.47
2023-06-19T15:20:56.861Z,98440.72
2023-06-19T15:21:59.587Z,98432.78
2023-06-19T15:23:01.356Z,98438.06
2023-06-19T15:24:04.473Z,98433.69
2023-06-19T15:25:07.213Z,98438.97
2023-06-19T15:26:09.843Z,98438.06
2023-06-19T15:27:12.639Z,98431.88
2023-06-19T15:28:16.331Z,98431.88
2023-06-19T15:29:20.327Z,98438.06
2023-06-19T15:30:22.512Z,98427.50
2023-06-19T15:31:25.668Z,98424.84
2023-06-19T15:32:27.598Z,98430.13
2023-06-19T15:33:30.301Z,98432.78
2023-06-19T15:34:33.163Z,98431.03
2023-06-19T15:35:34.952Z,98428.38
2023-06-19T15:36:37.706Z,98436.31
2023-06-19T15:37:39.709Z,98431.03
2023-06-19T15:38:42.419Z,98428.38
2023-06-19T15:39:44.328Z,98432.75
2023-06-19T15:40:47.537Z,98427.47
2023-06-19T15:41:49.312Z,98421.28
2023-06-19T15:42:52.435Z,98420.38
2023-06-19T15:43:54.257Z,98421.19
2023-06-19T15:44:58.226Z,98411.47
2023-06-19T15:46:00.170Z,98413.16
2023-06-19T15:47:03.021Z,98410.44
2023-06-19T15:48:05.267Z,98408.66
2023-06-19T15:49:09.170Z,98406.06
2023-06-19T15:50:13.343Z,98407.88
2023-06-19T15:51:16.348Z,98400.88
2023-06-19T15:52:18.306Z,98400.00
2023-06-19T15:53:21.982Z,98408.78
2023-06-19T15:54:24.326Z,98400.78
2023-06-19T15:55:28.600Z,98399.00
2023-06-19T15:56:30.455Z,98399.78
2023-06-19T15:57:33.515Z,98392.69
2023-06-19T15:58:35.234Z,98388.25
2023-06-19T15:59:38.017Z,98388.25
2023-06-19T16:00:41.312Z,98398.00
2023-06-19T16:01:44.386Z,98395.53
2023-06-19T16:02:48.601Z,98396.50
2023-06-19T16:03:51.988Z,98391.28
2023-06-19T16:04:53.951Z,98395.72
2023-06-19T16:07:02.064Z,98401.06
2023-06-19T16:08:04.888Z,98408.97
2023-06-19T16:09:06.717Z,98406.34
2023-06-19T16:10:10.084Z,98405.47
2023-06-19T16:11:12.466Z,98405.47
2023-06-19T16:12:15.446Z,98408.13
2023-06-19T16:13:17.446Z,98402.81
2023-06-19T16:14:20.244Z,98403.69
2023-06-19T16:15:28.852Z,98389.59
2023-06-19T16:16:32.984Z,98386.97
2023-06-19T16:17:34.837Z,98388.75
2023-06-19T16:18:37.563Z,98392.28
2023-06-19T16:19:40.006Z,98387.00
2023-06-19T16:20:42.705Z,98387.88
2023-06-19T16:21:44.579Z,98392.25
2023-06-19T16:22:47.274Z,98381.66
2023-06-19T16:23:49.070Z,98376.38
2023-06-19T16:24:51.727Z,98378.09
2023-06-19T16:25:53.495Z,98380.72
2023-06-19T16:26:56.896Z,98377.19
2023-06-19T16:28:01.188Z,98370.13
2023-06-19T16:29:05.560Z,98380.72
2023-06-19T16:30:08.288Z,98378.09
2023-06-19T16:31:12.186Z,98376.31
2023-06-19T16:32:15.357Z,98386.03
2023-06-19T16:33:18.766Z,98379.00
2023-06-19T16:34:20.693Z,98386.06
2023-06-19T16:35:23.889Z,98377.25
2023-06-19T16:36:25.896Z,98380.75
2023-06-19T16:37:28.624Z,98381.69
2023-06-19T16:38:30.418Z,98385.22
2023-06-19T16:39:33.418Z,98386.97
2023-06-19T16:40:35.179Z,98379.97
2023-06-19T16:41:38.898Z,98381.69
2023-06-19T16:42:40.646Z,98379.09
2023-06-19T16:43:43.383Z,98383.47
2023-06-19T16:44:45.180Z,98379.06
2023-06-19T16:45:48.044Z,98381.69
2023-06-19T16:46:50.198Z,98382.56
2023-06-19T16:47:54.272Z,98391.41
2023-06-19T16:48:56.054Z,98383.47
2023-06-19T16:49:58.881Z,98383.47
2023-06-19T16:51:00.716Z,98385.25
2023-06-19T16:52:03.433Z,98378.19
2023-06-19T16:53:07.124Z,98383.50
2023-06-19T16:54:09.896Z,98379.97
2023-06-19T16:55:11.746Z,98374.69
2023-06-19T16:56:14.508Z,98376.47
2023-06-19T16:57:16.298Z,98375.56
2023-06-19T16:58:18.942Z,98371.16
2023-06-19T16:59:20.766Z,98372.06
2023-06-19T17:00:23.836Z,98372.94
2023-06-19T17:01:25.864Z,98367.66
2023-06-19T17:02:28.879Z,98370.28
2023-06-19T17:03:32.103Z,98369.38
2023-06-19T17:04:34.861Z,98363.22
2023-06-19T17:05:36.793Z,98358.81
2023-06-19T17:06:39.576Z,98351.75
2023-06-19T17:07:41.324Z,98360.53
2023-06-19T17:08:44.158Z,98357.00
2023-06-19T17:09:47.267Z,98350.03
2023-06-19T17:10:50.086Z,98348.25
2023-06-19T17:11:52.920Z,98357.94
2023-06-19T17:12:55.717Z,98365.84
2023-06-19T17:13:57.544Z,98371.16
2023-06-19T17:15:01.301Z,98363.22
2023-06-19T17:16:03.127Z,98368.53
2023-06-19T17:17:06.439Z,98368.53
2023-06-19T17:18:11.301Z,98377.38
2023-06-19T17:19:15.198Z,98372.09
2023-06-19T17:20:16.995Z,98376.50
2023-06-19T17:21:19.694Z,98373.84
2023-06-19T17:22:21.485Z,98371.22
2023-06-19T17:23:24.139Z,98371.22
2023-06-19T17:24:26.015Z,98372.09
2023-06-19T17:25:29.726Z,98371.22
2023-06-19T17:26:31.536Z,98373.00
2023-06-19T17:27:34.313Z,98366.81
2023-06-19T17:28:37.074Z,98373.00
2023-06-19T17:29:38.874Z,98373.00
2023-06-19T17:30:41.873Z,98377.41
2023-06-19T17:31:43.649Z,98380.91
2023-06-19T17:32:47.618Z,98375.66
2023-06-19T17:33:49.464Z,98379.16
2023-06-19T17:34:53.565Z,98383.56
2023-06-19T17:35:55.391Z,98385.31
2023-06-19T17:36:58.035Z,98377.38